sensor_id;sensor_type;location;lat;lon;timestamp;P1;durP1;ratioP1;P2;durP2;ratioP2
66542;SDS011;53395;37.360;-122.046;2023-07-30T00:01:18;8.40;;;3.00;;
66542;SDS011;53395;37.360;-122.046;2023-07-30T00:04:03;7.55;;;2.53;;
66542;SDS011;53395;37.360;-122.046;2023-07-30T00:06:48;9.88;;;2.83;;
66542;SDS011;53395;37.360;-122.046;2023-07-30T00:12:17;9.95;;;3.15;;
66542;SDS011;53395;37.360;-122.046;2023-07-30T00:15:01;7.47;;;2.78;;
66542;SDS011;53395;37.360;-122.046;2023-07-30T00:17:46;7.53;;;2.58;;
66542;SDS011;53395;37.360;-122.046;2023-07-30T00:20:30;6.70;;;2.53;;
66542;SDS011;53395;37.360;-122.046;2023-07-30T00:23:14;9.50;;;2.40;;
66542;SDS011;53395;37.360;-122.046;2023-07-30T00:25:59;8.88;;;2.92;;
66542;SDS011;53395;37.360;-122.046;2023-07-30T00:28:44;7.43;;;2.70;;
66542;SDS011;53395;37.360;-122.046;2023-07-30T00:31:28;8.02;;;2.85;;
66542;SDS011;53395;37.360;-122.046;2023-07-30T00:34:13;6.93;;;2.60;;
66542;SDS011;53395;37.360;-122.046;2023-07-30T00:36:58;7.63;;;2.38;;
66542;SDS011;53395;37.360;-122.046;2023-07-30T00:39:42;6.07;;;2.67;;
66542;SDS011;53395;37.360;-122.046;2023-07-30T00:42:27;7.28;;;2.60;;
66542;SDS011;53395;37.360;-122.046;2023-07-30T00:45:11;7.47;;;2.58;;
66542;SDS011;53395;37.360;-122.046;2023-07-30T00:47:56;8.57;;;2.75;;
66542;SDS011;53395;37.360;-122.046;2023-07-30T00:50:40;8.68;;;2.85;;
66542;SDS011;53395;37.360;-122.046;2023-07-30T00:53:26;6.80;;;2.53;;
66542;SDS011;53395;37.360;-122.046;2023-07-30T00:56:11;7.00;;;2.50;;
66542;SDS011;53395;37.360;-122.046;2023-07-30T00:58:55;7.50;;;2.20;;
66542;SDS011;53395;37.360;-122.046;2023-07-30T01:01:40;5.68;;;2.40;;
66542;SDS011;53395;37.360;-122.046;2023-07-30T01:04:25;5.80;;;2.38;;
66542;SDS011;53395;37.360;-122.046;2023-07-30T01:07:09;6.78;;;2.30;;
66542;SDS011;53395;37.360;-122.046;2023-07-30T01:09:54;8.63;;;2.28;;
66542;SDS011;53395;37.360;-122.046;2023-07-30T01:12:39;5.43;;;2.40;;
66542;SDS011;53395;37.360;-122.046;2023-07-30T01:15:25;6.88;;;2.38;;
66542;SDS011;53395;37.360;-122.046;2023-07-30T01:18:09;8.77;;;2.42;;
66542;SDS011;53395;37.360;-122.046;2023-07-30T01:20:57;8.68;;;2.60;;
66542;SDS011;53395;37.360;-122.046;2023-07-30T01:23:41;8.00;;;2.50;;
66542;SDS011;53395;37.360;-122.046;2023-07-30T01:26:39;8.63;;;2.55;;
66542;SDS011;53395;37.360;-122.046;2023-07-30T01:29:33;8.43;;;2.55;;
66542;SDS011;53395;37.360;-122.046;2023-07-30T01:32:20;5.95;;;2.30;;
66542;SDS011;53395;37.360;-122.046;2023-07-30T01:35:07;8.80;;;2.63;;
66542;SDS011;53395;37.360;-122.046;2023-07-30T01:37:51;7.47;;;2.47;;
66542;SDS011;53395;37.360;-122.046;2023-07-30T01:40:36;4.15;;;2.10;;
66542;SDS011;53395;37.360;-122.046;2023-07-30T01:43:20;9.95;;;2.63;;
66542;SDS011;53395;37.360;-122.046;2023-07-30T01:46:05;8.02;;;2.60;;
66542;SDS011;53395;37.360;-122.046;2023-07-30T01:48:50;7.47;;;2.67;;
66542;SDS011;53395;37.360;-122.046;2023-07-30T01:51:35;5.55;;;2.10;;
66542;SDS011;53395;37.360;-122.046;2023-07-30T01:54:19;8.93;;;2.58;;
66542;SDS011;53395;37.360;-122.046;2023-07-30T01:57:04;8.88;;;2.58;;
66542;SDS011;53395;37.360;-122.046;2023-07-30T01:59:48;6.70;;;2.30;;
66542;SDS011;53395;37.360;-122.046;2023-07-30T02:02:33;8.90;;;2.53;;
66542;SDS011;53395;37.360;-122.046;2023-07-30T02:05:19;6.97;;;2.40;;
66542;SDS011;53395;37.360;-122.046;2023-07-30T02:08:03;7.38;;;2.88;;
66542;SDS011;53395;37.360;-122.046;2023-07-30T02:10:57;7.90;;;2.28;;
66542;SDS011;53395;37.360;-122.046;2023-07-30T02:13:41;8.00;;;2.78;;
66542;SDS011;53395;37.360;-122.046;2023-07-30T02:16:26;11.35;;;3.40;;
66542;SDS011;53395;37.360;-122.046;2023-07-30T02:19:11;9.35;;;2.42;;
66542;SDS011;53395;37.360;-122.046;2023-07-30T02:21:55;8.25;;;2.70;;
66542;SDS011;53395;37.360;-122.046;2023-07-30T02:24:40;7.47;;;2.53;;
66542;SDS011;53395;37.360;-122.046;2023-07-30T02:27:25;10.40;;;6.05;;
66542;SDS011;53395;37.360;-122.046;2023-07-30T02:30:09;136.52;;;126.05;;
66542;SDS011;53395;37.360;-122.046;2023-07-30T02:32:54;148.43;;;93.50;;
66542;SDS011;53395;37.360;-122.046;2023-07-30T02:35:39;140.45;;;88.10;;
66542;SDS011;53395;37.360;-122.046;2023-07-30T02:38:23;10.07;;;3.95;;
66542;SDS011;53395;37.360;-122.046;2023-07-30T02:41:08;11.48;;;2.95;;
66542;SDS011;53395;37.360;-122.046;2023-07-30T02:43:53;12.23;;;2.63;;
66542;SDS011;53395;37.360;-122.046;2023-07-30T02:46:37;11.10;;;2.63;;
66542;SDS011;53395;37.360;-122.046;2023-07-30T02:49:22;10.63;;;2.90;;
66542;SDS011;53395;37.360;-122.046;2023-07-30T02:52:06;9.32;;;2.75;;
66542;SDS011;53395;37.360;-122.046;2023-07-30T02:54:51;10.50;;;2.80;;
66542;SDS011;53395;37.360;-122.046;2023-07-30T02:57:36;11.55;;;3.30;;
66542;SDS011;53395;37.360;-122.046;2023-07-30T03:00:20;8.30;;;2.45;;
66542;SDS011;53395;37.360;-122.046;2023-07-30T03:03:05;10.15;;;2.83;;
66542;SDS011;53395;37.360;-122.046;2023-07-30T03:05:50;9.23;;;2.47;;
66542;SDS011;53395;37.360;-122.046;2023-07-30T03:08:35;11.98;;;3.15;;
66542;SDS011;53395;37.360;-122.046;2023-07-30T03:11:23;8.95;;;2.67;;
66542;SDS011;53395;37.360;-122.046;2023-07-30T03:14:07;12.10;;;2.70;;
66542;SDS011;53395;37.360;-122.046;2023-07-30T03:16:52;11.60;;;3.00;;
66542;SDS011;53395;37.360;-122.046;2023-07-30T03:19:36;12.98;;;2.95;;
66542;SDS011;53395;37.360;-122.046;2023-07-30T03:22:21;11.45;;;3.00;;
66542;SDS011;53395;37.360;-122.046;2023-07-30T03:25:06;12.88;;;3.30;;
66542;SDS011;53395;37.360;-122.046;2023-07-30T03:33:19;13.57;;;3.05;;
66542;SDS011;53395;37.360;-122.046;2023-07-30T03:36:04;16.60;;;3.80;;
66542;SDS011;53395;37.360;-122.046;2023-07-30T03:38:48;8.93;;;2.88;;
66542;SDS011;53395;37.360;-122.046;2023-07-30T03:41:33;11.23;;;3.05;;
66542;SDS011;53395;37.360;-122.046;2023-07-30T03:44:21;10.00;;;3.45;;
66542;SDS011;53395;37.360;-122.046;2023-07-30T03:47:05;12.45;;;3.47;;
66542;SDS011;53395;37.360;-122.046;2023-07-30T03:49:50;13.38;;;3.13;;
66542;SDS011;53395;37.360;-122.046;2023-07-30T03:52:35;14.93;;;3.58;;
66542;SDS011;53395;37.360;-122.046;2023-07-30T03:55:19;13.80;;;3.47;;
66542;SDS011;53395;37.360;-122.046;2023-07-30T03:58:04;14.57;;;3.90;;
66542;SDS011;53395;37.360;-122.046;2023-07-30T04:00:49;13.52;;;3.45;;
66542;SDS011;53395;37.360;-122.046;2023-07-30T04:03:34;13.95;;;3.47;;
66542;SDS011;53395;37.360;-122.046;2023-07-30T04:06:18;16.52;;;3.65;;
66542;SDS011;53395;37.360;-122.046;2023-07-30T04:09:03;16.40;;;3.58;;
66542;SDS011;53395;37.360;-122.046;2023-07-30T04:11:47;11.63;;;3.25;;
66542;SDS011;53395;37.360;-122.046;2023-07-30T04:14:32;10.73;;;3.20;;
66542;SDS011;53395;37.360;-122.046;2023-07-30T04:17:16;16.83;;;3.60;;
66542;SDS011;53395;37.360;-122.046;2023-07-30T04:20:01;12.45;;;3.40;;
66542;SDS011;53395;37.360;-122.046;2023-07-30T04:25:31;15.18;;;3.70;;
66542;SDS011;53395;37.360;-122.046;2023-07-30T04:28:15;11.82;;;3.30;;
66542;SDS011;53395;37.360;-122.046;2023-07-30T04:31:00;11.10;;;3.38;;
66542;SDS011;53395;37.360;-122.046;2023-07-30T04:33:45;10.00;;;3.35;;
66542;SDS011;53395;37.360;-122.046;2023-07-30T04:36:29;15.45;;;3.80;;
66542;SDS011;53395;37.360;-122.046;2023-07-30T04:39:13;12.80;;;3.40;;
66542;SDS011;53395;37.360;-122.046;2023-07-30T04:41:58;15.18;;;3.70;;
66542;SDS011;53395;37.360;-122.046;2023-07-30T04:44:43;13.18;;;3.80;;
66542;SDS011;53395;37.360;-122.046;2023-07-30T04:50:12;13.88;;;3.88;;
66542;SDS011;53395;37.360;-122.046;2023-07-30T04:52:56;16.60;;;4.10;;
66542;SDS011;53395;37.360;-122.046;2023-07-30T04:55:41;13.93;;;3.72;;
66542;SDS011;53395;37.360;-122.046;2023-07-30T04:58:25;14.88;;;3.85;;
66542;SDS011;53395;37.360;-122.046;2023-07-30T05:01:10;16.63;;;4.20;;
66542;SDS011;53395;37.360;-122.046;2023-07-30T05:03:55;12.98;;;3.65;;
66542;SDS011;53395;37.360;-122.046;2023-07-30T05:06:39;11.88;;;3.72;;
66542;SDS011;53395;37.360;-122.046;2023-07-30T05:09:24;14.55;;;4.05;;
66542;SDS011;53395;37.360;-122.046;2023-07-30T05:12:08;14.18;;;4.20;;
66542;SDS011;53395;37.360;-122.046;2023-07-30T05:14:53;12.32;;;3.75;;
66542;SDS011;53395;37.360;-122.046;2023-07-30T05:17:37;17.33;;;4.25;;
66542;SDS011;53395;37.360;-122.046;2023-07-30T05:20:21;13.18;;;4.50;;
66542;SDS011;53395;37.360;-122.046;2023-07-30T05:23:06;14.60;;;4.40;;
66542;SDS011;53395;37.360;-122.046;2023-07-30T05:25:51;17.73;;;4.45;;
66542;SDS011;53395;37.360;-122.046;2023-07-30T05:28:36;14.35;;;4.03;;
66542;SDS011;53395;37.360;-122.046;2023-07-30T05:31:20;16.88;;;4.28;;
66542;SDS011;53395;37.360;-122.046;2023-07-30T05:34:05;13.43;;;3.50;;
66542;SDS011;53395;37.360;-122.046;2023-07-30T05:36:50;18.08;;;3.95;;
66542;SDS011;53395;37.360;-122.046;2023-07-30T05:39:34;15.05;;;4.47;;
66542;SDS011;53395;37.360;-122.046;2023-07-30T05:42:19;16.05;;;3.97;;
66542;SDS011;53395;37.360;-122.046;2023-07-30T05:45:03;19.60;;;4.18;;
66542;SDS011;53395;37.360;-122.046;2023-07-30T05:47:48;13.13;;;3.30;;
66542;SDS011;53395;37.360;-122.046;2023-07-30T05:50:32;14.23;;;3.50;;
66542;SDS011;53395;37.360;-122.046;2023-07-30T05:53:17;11.63;;;4.07;;
66542;SDS011;53395;37.360;-122.046;2023-07-30T05:56:01;19.95;;;4.20;;
66542;SDS011;53395;37.360;-122.046;2023-07-30T05:58:46;17.00;;;4.07;;
66542;SDS011;53395;37.360;-122.046;2023-07-30T06:01:30;14.90;;;3.38;;
66542;SDS011;53395;37.360;-122.046;2023-07-30T06:04:15;9.38;;;3.35;;
66542;SDS011;53395;37.360;-122.046;2023-07-30T06:06:59;13.93;;;3.97;;
66542;SDS011;53395;37.360;-122.046;2023-07-30T06:09:47;11.13;;;3.60;;
66542;SDS011;53395;37.360;-122.046;2023-07-30T06:12:32;16.48;;;3.75;;
66542;SDS011;53395;37.360;-122.046;2023-07-30T06:15:17;13.60;;;3.65;;
66542;SDS011;53395;37.360;-122.046;2023-07-30T06:18:02;15.50;;;4.38;;
66542;SDS011;53395;37.360;-122.046;2023-07-30T06:20:47;14.10;;;4.05;;
66542;SDS011;53395;37.360;-122.046;2023-07-30T06:23:31;14.30;;;3.55;;
66542;SDS011;53395;37.360;-122.046;2023-07-30T06:26:15;10.35;;;3.45;;
66542;SDS011;53395;37.360;-122.046;2023-07-30T06:29:00;11.65;;;3.80;;
66542;SDS011;53395;37.360;-122.046;2023-07-30T06:31:44;13.00;;;3.83;;
66542;SDS011;53395;37.360;-122.046;2023-07-30T06:34:29;10.98;;;3.88;;
66542;SDS011;53395;37.360;-122.046;2023-07-30T06:37:13;16.63;;;4.15;;
66542;SDS011;53395;37.360;-122.046;2023-07-30T06:39:58;12.07;;;4.35;;
66542;SDS011;53395;37.360;-122.046;2023-07-30T06:42:42;13.95;;;4.10;;
66542;SDS011;53395;37.360;-122.046;2023-07-30T06:45:27;13.25;;;3.80;;
66542;SDS011;53395;37.360;-122.046;2023-07-30T06:48:12;13.93;;;3.85;;
66542;SDS011;53395;37.360;-122.046;2023-07-30T06:50:57;14.13;;;3.95;;
66542;SDS011;53395;37.360;-122.046;2023-07-30T06:53:42;15.25;;;4.03;;
66542;SDS011;53395;37.360;-122.046;2023-07-30T06:56:26;12.90;;;4.55;;
66542;SDS011;53395;37.360;-122.046;2023-07-30T06:59:10;12.07;;;3.72;;
66542;SDS011;53395;37.360;-122.046;2023-07-30T07:01:55;14.05;;;3.72;;
66542;SDS011;53395;37.360;-122.046;2023-07-30T07:04:39;12.63;;;3.60;;
66542;SDS011;53395;37.360;-122.046;2023-07-30T07:07:23;13.68;;;3.60;;
66542;SDS011;53395;37.360;-122.046;2023-07-30T07:10:08;12.30;;;4.35;;
66542;SDS011;53395;37.360;-122.046;2023-07-30T07:12:54;10.35;;;3.42;;
66542;SDS011;53395;37.360;-122.046;2023-07-30T07:15:39;12.80;;;4.10;;
66542;SDS011;53395;37.360;-122.046;2023-07-30T07:18:24;15.88;;;4.43;;
66542;SDS011;53395;37.360;-122.046;2023-07-30T07:21:08;14.90;;;4.30;;
66542;SDS011;53395;37.360;-122.046;2023-07-30T07:23:52;12.20;;;4.05;;
66542;SDS011;53395;37.360;-122.046;2023-07-30T07:26:37;15.98;;;4.00;;
66542;SDS011;53395;37.360;-122.046;2023-07-30T07:29:21;15.38;;;4.50;;
66542;SDS011;53395;37.360;-122.046;2023-07-30T07:32:06;14.82;;;3.88;;
66542;SDS011;53395;37.360;-122.046;2023-07-30T07:34:51;15.45;;;3.70;;
66542;SDS011;53395;37.360;-122.046;2023-07-30T07:37:36;14.88;;;4.43;;
66542;SDS011;53395;37.360;-122.046;2023-07-30T07:40:20;16.13;;;4.32;;
66542;SDS011;53395;37.360;-122.046;2023-07-30T07:43:05;12.98;;;3.75;;
66542;SDS011;53395;37.360;-122.046;2023-07-30T07:45:50;13.05;;;3.72;;
66542;SDS011;53395;37.360;-122.046;2023-07-30T07:48:34;14.48;;;4.10;;
66542;SDS011;53395;37.360;-122.046;2023-07-30T07:51:19;11.50;;;3.83;;
66542;SDS011;53395;37.360;-122.046;2023-07-30T07:54:03;13.15;;;4.05;;
66542;SDS011;53395;37.360;-122.046;2023-07-30T07:56:48;13.63;;;3.70;;
66542;SDS011;53395;37.360;-122.046;2023-07-30T07:59:32;13.80;;;4.32;;
66542;SDS011;53395;37.360;-122.046;2023-07-30T08:02:17;10.02;;;3.45;;
66542;SDS011;53395;37.360;-122.046;2023-07-30T08:05:03;11.45;;;4.07;;
66542;SDS011;53395;37.360;-122.046;2023-07-30T08:07:47;11.50;;;3.97;;
66542;SDS011;53395;37.360;-122.046;2023-07-30T08:10:32;12.93;;;4.00;;
66542;SDS011;53395;37.360;-122.046;2023-07-30T08:13:16;10.15;;;4.10;;
66542;SDS011;53395;37.360;-122.046;2023-07-30T08:16:00;14.05;;;4.13;;
66542;SDS011;53395;37.360;-122.046;2023-07-30T08:18:45;12.15;;;3.80;;
66542;SDS011;53395;37.360;-122.046;2023-07-30T08:21:30;10.77;;;3.67;;
66542;SDS011;53395;37.360;-122.046;2023-07-30T08:24:14;12.50;;;4.32;;
66542;SDS011;53395;37.360;-122.046;2023-07-30T08:26:59;10.07;;;3.83;;
66542;SDS011;53395;37.360;-122.046;2023-07-30T08:29:43;9.93;;;3.45;;
66542;SDS011;53395;37.360;-122.046;2023-07-30T08:32:29;11.43;;;3.80;;
66542;SDS011;53395;37.360;-122.046;2023-07-30T08:35:13;10.15;;;4.07;;
66542;SDS011;53395;37.360;-122.046;2023-07-30T08:37:58;12.73;;;3.60;;
66542;SDS011;53395;37.360;-122.046;2023-07-30T08:40:42;11.35;;;4.18;;
66542;SDS011;53395;37.360;-122.046;2023-07-30T08:43:27;11.13;;;4.00;;
66542;SDS011;53395;37.360;-122.046;2023-07-30T08:46:12;17.05;;;4.45;;
66542;SDS011;53395;37.360;-122.046;2023-07-30T08:48:57;13.48;;;3.92;;
66542;SDS011;53395;37.360;-122.046;2023-07-30T08:51:41;14.05;;;3.88;;
66542;SDS011;53395;37.360;-122.046;2023-07-30T08:54:27;9.70;;;3.53;;
66542;SDS011;53395;37.360;-122.046;2023-07-30T08:57:14;13.52;;;3.95;;
66542;SDS011;53395;37.360;-122.046;2023-07-30T09:00:04;14.27;;;3.95;;
66542;SDS011;53395;37.360;-122.046;2023-07-30T09:02:50;11.68;;;4.07;;
66542;SDS011;53395;37.360;-122.046;2023-07-30T09:05:36;10.88;;;3.30;;
66542;SDS011;53395;37.360;-122.046;2023-07-30T09:08:21;12.52;;;4.45;;
66542;SDS011;53395;37.360;-122.046;2023-07-30T09:11:07;12.88;;;3.60;;
66542;SDS011;53395;37.360;-122.046;2023-07-30T09:13:53;12.65;;;3.40;;
66542;SDS011;53395;37.360;-122.046;2023-07-30T09:16:38;13.15;;;4.07;;
66542;SDS011;53395;37.360;-122.046;2023-07-30T09:19:22;13.55;;;3.97;;
66542;SDS011;53395;37.360;-122.046;2023-07-30T09:22:07;18.42;;;4.13;;
66542;SDS011;53395;37.360;-122.046;2023-07-30T09:24:51;13.60;;;3.80;;
66542;SDS011;53395;37.360;-122.046;2023-07-30T09:27:36;11.63;;;3.70;;
66542;SDS011;53395;37.360;-122.046;2023-07-30T09:30:23;12.93;;;3.58;;
66542;SDS011;53395;37.360;-122.046;2023-07-30T09:33:08;10.40;;;3.63;;
66542;SDS011;53395;37.360;-122.046;2023-07-30T09:35:53;15.93;;;4.28;;
66542;SDS011;53395;37.360;-122.046;2023-07-30T09:38:39;11.10;;;3.85;;
66542;SDS011;53395;37.360;-122.046;2023-07-30T09:41:24;11.23;;;4.15;;
66542;SDS011;53395;37.360;-122.046;2023-07-30T09:44:09;12.93;;;3.67;;
66542;SDS011;53395;37.360;-122.046;2023-07-30T09:46:54;13.63;;;3.95;;
66542;SDS011;53395;37.360;-122.046;2023-07-30T09:49:38;12.15;;;3.78;;
66542;SDS011;53395;37.360;-122.046;2023-07-30T09:52:23;12.30;;;4.00;;
66542;SDS011;53395;37.360;-122.046;2023-07-30T09:55:08;12.02;;;4.40;;
66542;SDS011;53395;37.360;-122.046;2023-07-30T09:57:52;15.13;;;4.50;;
66542;SDS011;53395;37.360;-122.046;2023-07-30T10:00:37;13.00;;;3.78;;
66542;SDS011;53395;37.360;-122.046;2023-07-30T10:03:22;15.68;;;4.03;;
66542;SDS011;53395;37.360;-122.046;2023-07-30T10:06:07;16.27;;;3.88;;
66542;SDS011;53395;37.360;-122.046;2023-07-30T10:08:51;11.07;;;4.03;;
66542;SDS011;53395;37.360;-122.046;2023-07-30T10:11:36;13.00;;;3.88;;
66542;SDS011;53395;37.360;-122.046;2023-07-30T10:14:22;11.85;;;3.65;;
66542;SDS011;53395;37.360;-122.046;2023-07-30T10:17:09;14.18;;;3.78;;
66542;SDS011;53395;37.360;-122.046;2023-07-30T10:19:54;13.55;;;4.30;;
66542;SDS011;53395;37.360;-122.046;2023-07-30T10:22:39;13.48;;;5.03;;
66542;SDS011;53395;37.360;-122.046;2023-07-30T10:25:56;12.82;;;3.53;;
66542;SDS011;53395;37.360;-122.046;2023-07-30T10:28:36;12.68;;;3.90;;
66542;SDS011;53395;37.360;-122.046;2023-07-30T10:31:23;9.30;;;3.63;;
66542;SDS011;53395;37.360;-122.046;2023-07-30T10:34:22;14.98;;;4.13;;
66542;SDS011;53395;37.360;-122.046;2023-07-30T10:37:10;13.90;;;4.10;;
66542;SDS011;53395;37.360;-122.046;2023-07-30T10:39:54;8.02;;;3.42;;
66542;SDS011;53395;37.360;-122.046;2023-07-30T10:42:39;16.10;;;4.15;;
66542;SDS011;53395;37.360;-122.046;2023-07-30T10:45:25;10.10;;;3.72;;
66542;SDS011;53395;37.360;-122.046;2023-07-30T10:48:10;11.65;;;3.85;;
66542;SDS011;53395;37.360;-122.046;2023-07-30T10:50:54;8.43;;;3.63;;
66542;SDS011;53395;37.360;-122.046;2023-07-30T10:53:41;11.10;;;4.03;;
66542;SDS011;53395;37.360;-122.046;2023-07-30T10:56:27;11.07;;;3.92;;
66542;SDS011;53395;37.360;-122.046;2023-07-30T10:59:12;13.07;;;4.03;;
66542;SDS011;53395;37.360;-122.046;2023-07-30T11:01:57;11.88;;;4.88;;
66542;SDS011;53395;37.360;-122.046;2023-07-30T11:04:42;14.27;;;4.18;;
66542;SDS011;53395;37.360;-122.046;2023-07-30T11:07:26;12.32;;;4.35;;
66542;SDS011;53395;37.360;-122.046;2023-07-30T11:10:11;13.98;;;4.28;;
66542;SDS011;53395;37.360;-122.046;2023-07-30T11:12:55;14.00;;;4.25;;
66542;SDS011;53395;37.360;-122.046;2023-07-30T11:15:44;10.38;;;4.15;;
66542;SDS011;53395;37.360;-122.046;2023-07-30T11:18:30;23.17;;;5.75;;
66542;SDS011;53395;37.360;-122.046;2023-07-30T11:21:17;19.60;;;6.20;;
66542;SDS011;53395;37.360;-122.046;2023-07-30T11:24:01;18.13;;;5.28;;
66542;SDS011;53395;37.360;-122.046;2023-07-30T11:26:56;19.15;;;5.35;;
66542;SDS011;53395;37.360;-122.046;2023-07-30T11:29:41;16.08;;;5.25;;
66542;SDS011;53395;37.360;-122.046;2023-07-30T11:32:27;16.65;;;4.88;;
66542;SDS011;53395;37.360;-122.046;2023-07-30T11:35:14;17.35;;;4.95;;
66542;SDS011;53395;37.360;-122.046;2023-07-30T11:38:00;19.92;;;5.93;;
66542;SDS011;53395;37.360;-122.046;2023-07-30T11:40:45;18.95;;;5.68;;
66542;SDS011;53395;37.360;-122.046;2023-07-30T11:43:30;20.95;;;6.55;;
66542;SDS011;53395;37.360;-122.046;2023-07-30T11:46:15;18.27;;;6.80;;
66542;SDS011;53395;37.360;-122.046;2023-07-30T11:49:13;19.05;;;7.03;;
66542;SDS011;53395;37.360;-122.046;2023-07-30T11:52:04;16.65;;;5.63;;
66542;SDS011;53395;37.360;-122.046;2023-07-30T11:54:59;18.98;;;6.00;;
66542;SDS011;53395;37.360;-122.046;2023-07-30T11:57:44;18.15;;;5.50;;
66542;SDS011;53395;37.360;-122.046;2023-07-30T12:00:29;17.95;;;6.15;;
66542;SDS011;53395;37.360;-122.046;2023-07-30T12:03:14;22.23;;;6.65;;
66542;SDS011;53395;37.360;-122.046;2023-07-30T12:06:04;17.15;;;6.30;;
66542;SDS011;53395;37.360;-122.046;2023-07-30T12:08:49;20.52;;;6.43;;
66542;SDS011;53395;37.360;-122.046;2023-07-30T12:11:33;19.60;;;6.35;;
66542;SDS011;53395;37.360;-122.046;2023-07-30T12:14:18;20.48;;;7.30;;
66542;SDS011;53395;37.360;-122.046;2023-07-30T12:17:03;20.30;;;6.50;;
66542;SDS011;53395;37.360;-122.046;2023-07-30T12:19:47;18.73;;;6.57;;
66542;SDS011;53395;37.360;-122.046;2023-07-30T12:22:33;16.23;;;6.70;;
66542;SDS011;53395;37.360;-122.046;2023-07-30T12:25:22;16.95;;;7.18;;
66542;SDS011;53395;37.360;-122.046;2023-07-30T12:28:06;23.55;;;7.13;;
66542;SDS011;53395;37.360;-122.046;2023-07-30T12:30:51;21.42;;;7.00;;
66542;SDS011;53395;37.360;-122.046;2023-07-30T12:33:36;18.77;;;7.20;;
66542;SDS011;53395;37.360;-122.046;2023-07-30T12:36:20;22.77;;;6.25;;
66542;SDS011;53395;37.360;-122.046;2023-07-30T12:39:05;19.58;;;5.85;;
66542;SDS011;53395;37.360;-122.046;2023-07-30T12:41:51;20.95;;;6.63;;
66542;SDS011;53395;37.360;-122.046;2023-07-30T12:44:36;19.48;;;6.40;;
66542;SDS011;53395;37.360;-122.046;2023-07-30T12:47:20;20.02;;;6.35;;
66542;SDS011;53395;37.360;-122.046;2023-07-30T12:50:05;22.75;;;6.88;;
66542;SDS011;53395;37.360;-122.046;2023-07-30T12:52:50;22.70;;;7.00;;
66542;SDS011;53395;37.360;-122.046;2023-07-30T12:55:34;14.20;;;6.22;;
66542;SDS011;53395;37.360;-122.046;2023-07-30T12:58:19;14.85;;;6.70;;
66542;SDS011;53395;37.360;-122.046;2023-07-30T13:01:04;18.58;;;6.88;;
66542;SDS011;53395;37.360;-122.046;2023-07-30T13:03:49;19.05;;;7.40;;
66542;SDS011;53395;37.360;-122.046;2023-07-30T13:06:36;23.98;;;7.55;;
66542;SDS011;53395;37.360;-122.046;2023-07-30T13:09:20;15.65;;;6.75;;
66542;SDS011;53395;37.360;-122.046;2023-07-30T13:12:05;17.90;;;7.13;;
66542;SDS011;53395;37.360;-122.046;2023-07-30T13:14:50;17.42;;;7.10;;
66542;SDS011;53395;37.360;-122.046;2023-07-30T13:17:34;17.23;;;6.75;;
66542;SDS011;53395;37.360;-122.046;2023-07-30T13:20:18;14.82;;;6.25;;
66542;SDS011;53395;37.360;-122.046;2023-07-30T13:23:03;18.00;;;6.63;;
66542;SDS011;53395;37.360;-122.046;2023-07-30T13:25:47;15.25;;;6.18;;
66542;SDS011;53395;37.360;-122.046;2023-07-30T13:28:31;16.60;;;6.35;;
66542;SDS011;53395;37.360;-122.046;2023-07-30T13:31:16;22.30;;;7.43;;
66542;SDS011;53395;37.360;-122.046;2023-07-30T13:34:02;16.67;;;6.85;;
66542;SDS011;53395;37.360;-122.046;2023-07-30T13:36:47;20.25;;;6.25;;
66542;SDS011;53395;37.360;-122.046;2023-07-30T13:39:31;22.15;;;6.78;;
66542;SDS011;53395;37.360;-122.046;2023-07-30T13:42:16;20.25;;;6.00;;
66542;SDS011;53395;37.360;-122.046;2023-07-30T13:45:00;16.38;;;5.15;;
66542;SDS011;53395;37.360;-122.046;2023-07-30T13:47:45;15.30;;;5.50;;
66542;SDS011;53395;37.360;-122.046;2023-07-30T13:50:29;14.85;;;5.53;;
66542;SDS011;53395;37.360;-122.046;2023-07-30T13:53:13;12.60;;;5.38;;
66542;SDS011;53395;37.360;-122.046;2023-07-30T13:55:57;13.18;;;5.70;;
66542;SDS011;53395;37.360;-122.046;2023-07-30T13:58:42;14.15;;;5.22;;
66542;SDS011;53395;37.360;-122.046;2023-07-30T14:01:27;16.00;;;5.85;;
66542;SDS011;53395;37.360;-122.046;2023-07-30T14:04:12;16.60;;;5.43;;
66542;SDS011;53395;37.360;-122.046;2023-07-30T14:06:56;12.10;;;4.47;;
66542;SDS011;53395;37.360;-122.046;2023-07-30T14:09:41;13.43;;;5.40;;
66542;SDS011;53395;37.360;-122.046;2023-07-30T14:12:27;15.50;;;5.30;;
66542;SDS011;53395;37.360;-122.046;2023-07-30T14:15:11;17.60;;;5.10;;
66542;SDS011;53395;37.360;-122.046;2023-07-30T14:17:56;18.42;;;6.10;;
66542;SDS011;53395;37.360;-122.046;2023-07-30T14:20:40;17.00;;;4.97;;
66542;SDS011;53395;37.360;-122.046;2023-07-30T14:23:25;18.02;;;6.03;;
66542;SDS011;53395;37.360;-122.046;2023-07-30T14:26:10;18.30;;;6.18;;
66542;SDS011;53395;37.360;-122.046;2023-07-30T14:28:54;19.17;;;5.65;;
66542;SDS011;53395;37.360;-122.046;2023-07-30T14:31:38;16.65;;;6.28;;
66542;SDS011;53395;37.360;-122.046;2023-07-30T14:34:22;18.30;;;5.85;;
66542;SDS011;53395;37.360;-122.046;2023-07-30T14:37:07;19.55;;;6.05;;
66542;SDS011;53395;37.360;-122.046;2023-07-30T14:39:51;14.43;;;6.47;;
66542;SDS011;53395;37.360;-122.046;2023-07-30T14:42:35;18.08;;;6.80;;
66542;SDS011;53395;37.360;-122.046;2023-07-30T14:45:20;19.20;;;6.10;;
66542;SDS011;53395;37.360;-122.046;2023-07-30T14:48:05;22.90;;;6.70;;
66542;SDS011;53395;37.360;-122.046;2023-07-30T14:50:49;18.77;;;5.85;;
66542;SDS011;53395;37.360;-122.046;2023-07-30T14:53:34;20.30;;;5.95;;
66542;SDS011;53395;37.360;-122.046;2023-07-30T14:56:18;16.65;;;5.55;;
66542;SDS011;53395;37.360;-122.046;2023-07-30T14:59:03;15.65;;;6.07;;
66542;SDS011;53395;37.360;-122.046;2023-07-30T15:01:47;15.48;;;6.38;;
66542;SDS011;53395;37.360;-122.046;2023-07-30T15:04:32;17.40;;;6.13;;
66542;SDS011;53395;37.360;-122.046;2023-07-30T15:07:16;20.00;;;5.60;;
66542;SDS011;53395;37.360;-122.046;2023-07-30T15:10:00;20.88;;;5.75;;
66542;SDS011;53395;37.360;-122.046;2023-07-30T15:12:45;16.65;;;5.25;;
66542;SDS011;53395;37.360;-122.046;2023-07-30T15:15:30;19.45;;;5.38;;
66542;SDS011;53395;37.360;-122.046;2023-07-30T15:18:14;16.08;;;5.43;;
66542;SDS011;53395;37.360;-122.046;2023-07-30T15:20:59;15.15;;;5.05;;
66542;SDS011;53395;37.360;-122.046;2023-07-30T15:23:45;16.77;;;5.65;;
66542;SDS011;53395;37.360;-122.046;2023-07-30T15:26:29;16.08;;;5.43;;
66542;SDS011;53395;37.360;-122.046;2023-07-30T15:29:14;15.68;;;4.93;;
66542;SDS011;53395;37.360;-122.046;2023-07-30T15:31:59;15.98;;;5.53;;
66542;SDS011;53395;37.360;-122.046;2023-07-30T15:34:46;14.15;;;5.30;;
66542;SDS011;53395;37.360;-122.046;2023-07-30T15:37:31;16.23;;;4.93;;
66542;SDS011;53395;37.360;-122.046;2023-07-30T15:40:16;14.80;;;4.75;;
66542;SDS011;53395;37.360;-122.046;2023-07-30T15:43:01;13.75;;;5.38;;
66542;SDS011;53395;37.360;-122.046;2023-07-30T15:45:46;13.48;;;4.65;;
66542;SDS011;53395;37.360;-122.046;2023-07-30T15:48:31;15.07;;;5.50;;
66542;SDS011;53395;37.360;-122.046;2023-07-30T15:51:16;15.13;;;5.32;;
66542;SDS011;53395;37.360;-122.046;2023-07-30T15:54:01;14.50;;;5.25;;